createdAt,value
2019-03-24T00:00:59.210Z,9.60
2019-03-24T00:03:28.441Z,9.60
2019-03-24T00:05:57.333Z,9.70
2019-03-24T00:08:26.141Z,9.60
2019-03-24T00:10:55.252Z,9.60
2019-03-24T00:13:25.014Z,9.50
2019-03-24T00:15:54.145Z,9.60
2019-03-24T00:18:22.975Z,9.50
2019-03-24T00:20:52.060Z,9.50
2019-03-24T00:23:21.200Z,9.40
2019-03-24T00:25:50.016Z,9.40
2019-03-24T00:28:18.819Z,9.40
2019-03-24T00:30:47.907Z,9.40
2019-03-24T00:33:17.064Z,9.40
2019-03-24T00:35:45.864Z,8.90
2019-03-24T00:38:14.756Z,9.30
2019-03-24T00:40:43.534Z,9.20
2019-03-24T00:43:12.633Z,9.20
2019-03-24T00:45:42.856Z,9.70
2019-03-24T00:48:11.850Z,9.20
2019-03-24T00:50:41.046Z,9.10
2019-03-24T00:53:09.867Z,9.20
2019-03-24T00:55:38.687Z,9.10
2019-03-24T00:58:07.447Z,9.00
2019-03-24T01:00:44.356Z,9.00
2019-03-24T01:03:13.187Z,8.90
2019-03-24T01:05:42.012Z,8.90
2019-03-24T01:08:10.849Z,8.80
2019-03-24T01:10:39.645Z,8.90
2019-03-24T01:13:08.433Z,8.90
2019-03-24T01:15:47.279Z,8.90
2019-03-24T01:18:08.122Z,8.80
2019-03-24T01:20:37.345Z,8.80
2019-03-24T01:23:06.331Z,8.90
2019-03-24T01:25:35.258Z,8.80
2019-03-24T01:28:04.265Z,8.70
2019-03-24T01:30:33.315Z,8.70
2019-03-24T01:33:02.682Z,8.60
2019-03-24T01:35:31.540Z,8.60
2019-03-24T01:38:00.327Z,8.50
2019-03-24T01:40:29.148Z,8.60
2019-03-24T01:42:58.020Z,8.50
2019-03-24T01:45:26.998Z,8.50
2019-03-24T01:47:55.861Z,8.50
2019-03-24T01:50:24.754Z,8.40
2019-03-24T01:52:53.550Z,8.40
2019-03-24T01:55:22.692Z,8.40
2019-03-24T01:57:52.649Z,8.30
2019-03-24T02:00:21.474Z,8.30
2019-03-24T02:02:50.733Z,8.40
2019-03-24T02:05:19.600Z,8.30
2019-03-24T02:07:48.487Z,8.40
2019-03-24T02:10:17.451Z,8.20
2019-03-24T02:12:46.346Z,8.20
2019-03-24T02:15:15.134Z,8.20
2019-03-24T02:17:43.973Z,8.10
2019-03-24T02:20:14.709Z,8.00
2019-03-24T02:22:43.579Z,8.00
2019-03-24T02:25:12.699Z,7.90
2019-03-24T02:27:41.935Z,7.80
2019-03-24T02:30:12.895Z,7.80
2019-03-24T02:32:41.968Z,7.60
2019-03-24T02:35:11.706Z,7.70
2019-03-24T02:37:40.803Z,7.70
2019-03-24T02:40:19.935Z,7.60
2019-03-24T02:42:47.953Z,7.30
2019-03-24T02:45:17.158Z,7.70
2019-03-24T02:47:46.112Z,7.70
2019-03-24T02:50:15.319Z,7.70
2019-03-24T02:52:44.728Z,7.80
2019-03-24T02:55:13.605Z,7.80
2019-03-24T02:57:42.744Z,7.80
2019-03-24T03:00:12.109Z,7.80
2019-03-24T03:02:40.974Z,7.70
2019-03-24T03:05:10.720Z,7.60
2019-03-24T03:07:39.848Z,7.60
2019-03-24T03:10:09.166Z,7.60
2019-03-24T03:12:37.987Z,7.60
2019-03-24T03:15:07.712Z,7.60
2019-03-24T03:17:36.485Z,7.60
2019-03-24T03:20:06.217Z,7.40
2019-03-24T03:22:35.471Z,7.40
2019-03-24T03:25:05.109Z,7.40
2019-03-24T03:27:34.025Z,7.30
2019-03-24T03:30:03.119Z,7.40
2019-03-24T03:32:32.075Z,7.40
2019-03-24T03:35:01.049Z,7.40
2019-03-24T03:37:29.881Z,7.40
2019-03-24T03:39:58.780Z,7.40
2019-03-24T03:42:27.942Z,7.40
2019-03-24T03:44:56.905Z,7.20
2019-03-24T03:47:25.718Z,7.30
2019-03-24T03:49:54.890Z,7.10
2019-03-24T03:52:23.677Z,7.20
2019-03-24T03:54:52.458Z,7.40
2019-03-24T03:57:21.254Z,7.30
2019-03-24T03:59:50.180Z,7.10
2019-03-24T04:02:20.614Z,7.10
2019-03-24T04:04:49.629Z,6.80
2019-03-24T04:07:18.427Z,7.00
2019-03-24T04:09:47.302Z,7.10
2019-03-24T04:12:16.466Z,7.10
2019-03-24T04:14:45.302Z,7.10
2019-03-24T04:17:14.565Z,7.10
2019-03-24T04:19:43.770Z,7.10
2019-03-24T04:22:12.624Z,7.00
2019-03-24T04:24:41.410Z,7.10
2019-03-24T04:27:10.341Z,7.00
2019-03-24T04:29:39.497Z,7.00
2019-03-24T04:32:08.364Z,7.00
2019-03-24T04:34:37.500Z,6.90
2019-03-24T04:37:06.312Z,6.70
2019-03-24T04:39:35.591Z,6.80
2019-03-24T04:42:04.416Z,6.90
2019-03-24T04:44:34.093Z,6.80
2019-03-24T04:47:02.903Z,6.80
2019-03-24T04:49:33.397Z,6.70
2019-03-24T04:52:02.546Z,6.70
2019-03-24T04:54:31.776Z,6.60
2019-03-24T04:57:00.928Z,6.60
2019-03-24T04:59:30.730Z,6.60
2019-03-24T05:01:59.531Z,6.60
2019-03-24T05:04:28.423Z,6.70
2019-03-24T05:06:57.428Z,6.60
2019-03-24T05:09:26.801Z,6.60
2019-03-24T05:11:55.620Z,6.00
2019-03-24T05:14:24.425Z,6.50
2019-03-24T05:16:53.628Z,6.50
2019-03-24T05:19:22.521Z,6.50
2019-03-24T05:21:51.465Z,6.40
2019-03-24T05:24:20.256Z,6.00
2019-03-24T05:26:49.075Z,6.20
2019-03-24T05:29:17.844Z,6.10
2019-03-24T05:31:46.638Z,6.10
2019-03-24T05:34:15.924Z,6.10
2019-03-24T05:36:44.801Z,6.10
2019-03-24T05:39:13.614Z,6.10
2019-03-24T05:41:44.158Z,6.20
2019-03-24T05:44:13.389Z,6.20
2019-03-24T05:46:42.150Z,6.20
2019-03-24T05:49:10.966Z,6.30
2019-03-24T05:51:39.869Z,6.30
2019-03-24T05:54:08.795Z,6.30
2019-03-24T05:56:37.743Z,6.20
2019-03-24T05:59:06.463Z,6.10
2019-03-24T06:01:35.310Z,6.00
2019-03-24T06:04:04.252Z,5.90
2019-03-24T06:06:33.093Z,5.90
2019-03-24T06:09:02.156Z,6.00
2019-03-24T06:11:33.214Z,6.10
2019-03-24T06:14:02.017Z,6.20
2019-03-24T06:16:30.838Z,6.30
2019-03-24T06:18:59.710Z,6.40
2019-03-24T06:21:28.651Z,6.30
2019-03-24T06:23:57.451Z,6.30
2019-03-24T06:26:26.362Z,6.20
2019-03-24T06:28:55.305Z,6.50
2019-03-24T06:31:24.138Z,6.40
2019-03-24T06:33:52.983Z,6.50
2019-03-24T06:36:21.900Z,6.50
2019-03-24T06:38:50.936Z,6.50
2019-03-24T06:41:20.641Z,6.40
2019-03-24T06:43:49.461Z,6.60
2019-03-24T06:46:18.246Z,6.80
2019-03-24T06:48:47.128Z,6.90
2019-03-24T06:51:16.131Z,7.00
2019-03-24T06:53:44.910Z,7.00
2019-03-24T06:56:13.746Z,6.90
2019-03-24T06:58:42.565Z,7.00
2019-03-24T07:01:11.931Z,7.20
2019-03-24T07:03:41.032Z,7.20
2019-03-24T07:06:09.812Z,7.30
2019-03-24T07:08:39.050Z,7.30
2019-03-24T07:11:13.353Z,7.30
2019-03-24T07:13:39.258Z,7.30
2019-03-24T07:16:08.196Z,7.50
2019-03-24T07:18:36.972Z,7.50
2019-03-24T07:21:05.886Z,7.50
2019-03-24T07:23:34.810Z,7.60
2019-03-24T07:26:03.770Z,7.80
2019-03-24T07:28:32.644Z,7.90
2019-03-24T07:31:01.985Z,7.90
2019-03-24T07:33:30.866Z,8.00
2019-03-24T07:35:59.695Z,8.00
2019-03-24T07:38:28.865Z,8.10
2019-03-24T07:40:58.441Z,8.10
2019-03-24T07:43:27.670Z,8.10
2019-03-24T07:45:56.488Z,8.30
2019-03-24T07:48:25.274Z,8.30
2019-03-24T07:50:54.094Z,8.40
2019-03-24T07:53:22.857Z,8.50
2019-03-24T07:55:51.671Z,8.50
2019-03-24T07:58:20.768Z,8.60
2019-03-24T08:00:49.698Z,8.80
2019-03-24T08:03:19.107Z,8.80
2019-03-24T08:05:48.016Z,8.80
2019-03-24T08:08:17.497Z,8.80
2019-03-24T08:10:46.619Z,8.90
2019-03-24T08:13:15.552Z,9.00
2019-03-24T08:15:44.328Z,9.00
2019-03-24T08:18:13.186Z,9.10
2019-03-24T08:20:43.273Z,9.20
2019-03-24T08:23:12.376Z,9.30
2019-03-24T08:25:41.200Z,9.70
2019-03-24T08:28:10.418Z,9.90
2019-03-24T08:30:39.458Z,9.90
2019-03-24T08:33:08.302Z,9.90
2019-03-24T08:35:37.233Z,9.90
2019-03-24T08:38:06.151Z,10.00
2019-03-24T08:40:34.895Z,10.10
2019-03-24T08:43:04.051Z,10.20
2019-03-24T08:45:32.831Z,10.30
2019-03-24T08:48:01.665Z,10.50
2019-03-24T08:50:30.423Z,10.50
2019-03-24T08:53:02.063Z,10.50
2019-03-24T08:55:32.081Z,10.50
2019-03-24T08:58:00.894Z,10.60
2019-03-24T09:00:30.772Z,10.80
2019-03-24T09:03:00.080Z,10.90
2019-03-24T09:05:30.750Z,11.00
2019-03-24T09:07:59.598Z,10.90
2019-03-24T09:10:29.861Z,11.10
2019-03-24T09:12:58.841Z,11.20
2019-03-24T09:15:27.714Z,11.40
2019-03-24T09:17:56.667Z,11.30
2019-03-24T09:20:25.455Z,11.30
2019-03-24T09:22:54.261Z,11.30
2019-03-24T09:25:23.192Z,11.50
2019-03-24T09:27:52.166Z,11.80
2019-03-24T09:30:33.234Z,11.90
2019-03-24T09:33:02.417Z,12.00
2019-03-24T09:35:31.274Z,12.00
2019-03-24T09:38:00.494Z,12.00
2019-03-24T09:40:30.986Z,12.20
2019-03-24T09:43:00.246Z,12.40
2019-03-24T09:45:30.602Z,12.70
2019-03-24T09:47:59.964Z,13.10
2019-03-24T09:50:28.834Z,13.10
2019-03-24T09:52:57.749Z,13.20
2019-03-24T09:55:26.541Z,13.40
2019-03-24T09:57:55.927Z,13.40
2019-03-24T10:00:24.665Z,13.50
2019-03-24T10:02:54.108Z,13.50
2019-03-24T10:05:23.628Z,13.80
2019-03-24T10:07:52.720Z,13.80
2019-03-24T10:10:21.598Z,13.90
2019-03-24T10:12:51.734Z,14.00
2019-03-24T10:15:22.368Z,12.80
2019-03-24T10:17:51.199Z,13.70
2019-03-24T10:20:20.055Z,13.60
2019-03-24T10:22:48.929Z,13.70
2019-03-24T10:25:17.944Z,13.90
2019-03-24T10:27:47.811Z,14.00
2019-03-24T10:30:16.666Z,14.20
2019-03-24T10:32:45.446Z,14.00
2019-03-24T10:35:14.616Z,14.20
2019-03-24T10:37:43.748Z,14.40
2019-03-24T10:40:12.966Z,14.40
2019-03-24T10:42:41.762Z,14.50
2019-03-24T10:45:10.772Z,14.60
2019-03-24T10:47:39.755Z,14.80
2019-03-24T10:50:09.447Z,14.90
2019-03-24T10:52:38.408Z,14.90
2019-03-24T10:55:08.768Z,15.10
2019-03-24T10:57:37.943Z,15.10
2019-03-24T11:00:08.780Z,15.00
2019-03-24T11:02:37.938Z,15.00
2019-03-24T11:05:07.032Z,14.80
2019-03-24T11:07:35.892Z,15.00
2019-03-24T11:10:06.015Z,15.30
2019-03-24T11:12:34.852Z,15.40
2019-03-24T11:15:04.623Z,15.60
2019-03-24T11:17:33.855Z,15.50
2019-03-24T11:20:03.047Z,15.30
2019-03-24T11:22:32.175Z,15.30
2019-03-24T11:25:02.197Z,15.00
2019-03-24T11:27:31.578Z,15.00
2019-03-24T11:30:00.537Z,14.90
2019-03-24T11:32:29.394Z,15.00
2019-03-24T11:34:58.210Z,15.00
2019-03-24T11:37:27.317Z,15.10
2019-03-24T11:39:56.161Z,15.10
2019-03-24T11:42:25.331Z,15.10
2019-03-24T11:44:54.218Z,15.30
2019-03-24T11:47:26.781Z,15.50
2019-03-24T11:49:54.613Z,15.30
2019-03-24T11:52:23.441Z,15.10
2019-03-24T11:54:52.581Z,15.30
2019-03-24T11:57:21.477Z,15.30
2019-03-24T11:59:50.365Z,15.20
2019-03-24T12:02:19.310Z,15.30
2019-03-24T12:04:48.133Z,15.20
2019-03-24T12:07:16.923Z,15.20
2019-03-24T12:09:46.277Z,15.80
2019-03-24T12:12:15.525Z,15.80
2019-03-24T12:14:44.382Z,16.00
2019-03-24T12:17:13.247Z,16.10
2019-03-24T12:19:42.410Z,16.50
2019-03-24T12:22:20.219Z,16.50
2019-03-24T12:24:50.350Z,16.50
2019-03-24T12:27:19.199Z,16.20
2019-03-24T12:29:48.085Z,15.80
2019-03-24T12:32:17.595Z,15.90
2019-03-24T12:34:46.481Z,16.20
2019-03-24T12:37:15.293Z,16.50
2019-03-24T12:39:44.410Z,16.20
2019-03-24T12:42:13.301Z,16.20
2019-03-24T12:44:42.233Z,16.20
2019-03-24T12:47:11.059Z,16.20
2019-03-24T12:49:39.870Z,16.60
2019-03-24T12:52:12.877Z,16.70
2019-03-24T12:54:41.168Z,16.90
2019-03-24T12:57:10.232Z,17.40
2019-03-24T12:59:39.051Z,17.10
2019-03-24T13:02:07.828Z,17.10
2019-03-24T13:04:37.823Z,16.80
2019-03-24T13:07:06.607Z,16.70
2019-03-24T13:09:35.517Z,16.70
2019-03-24T13:12:04.304Z,16.70
2019-03-24T13:14:33.122Z,16.40
2019-03-24T13:17:01.998Z,16.60
2019-03-24T13:22:00.850Z,16.70
2019-03-24T13:24:29.739Z,16.80
2019-03-24T13:26:58.603Z,16.90
2019-03-24T13:29:27.549Z,16.90
2019-03-24T13:31:56.362Z,16.80
2019-03-24T13:34:25.474Z,16.80
2019-03-24T13:36:54.639Z,16.80
2019-03-24T13:39:23.551Z,16.80
2019-03-24T13:41:52.379Z,17.10
2019-03-24T13:44:21.246Z,17.20
2019-03-24T13:46:50.066Z,17.40
2019-03-24T13:49:19.547Z,18.00
2019-03-24T13:51:48.319Z,18.10
2019-03-24T13:54:17.440Z,19.30
2019-03-24T13:56:46.520Z,19.70
2019-03-24T13:59:15.302Z,19.50
2019-03-24T14:01:44.321Z,19.00
2019-03-24T14:04:13.110Z,18.60
2019-03-24T14:06:41.950Z,18.70
2019-03-24T14:09:11.299Z,18.70
2019-03-24T14:11:40.211Z,18.40
2019-03-24T14:14:09.035Z,18.50
2019-03-24T14:16:37.883Z,18.30
2019-03-24T14:19:06.785Z,19.00
2019-03-24T14:21:35.651Z,19.10
2019-03-24T14:24:04.425Z,19.50
2019-03-24T14:26:33.475Z,19.70
2019-03-24T14:29:02.261Z,19.00
2019-03-24T14:31:32.831Z,19.00
2019-03-24T14:34:01.948Z,18.50
2019-03-24T14:36:31.085Z,18.50
2019-03-24T14:38:59.904Z,18.80
2019-03-24T14:41:28.765Z,18.60
2019-03-24T14:43:57.569Z,18.30
2019-03-24T14:46:26.736Z,18.00
2019-03-24T14:48:55.627Z,17.00
2019-03-24T14:51:26.360Z,16.90
2019-03-24T14:53:55.173Z,16.70
2019-03-24T14:56:24.343Z,16.90
2019-03-24T14:58:53.700Z,17.10
2019-03-24T15:01:22.854Z,17.20
2019-03-24T15:03:51.713Z,17.80
2019-03-24T15:06:20.754Z,18.30
2019-03-24T15:08:49.666Z,18.00
2019-03-24T15:11:19.694Z,18.10
2019-03-24T15:13:48.475Z,17.60
2019-03-24T15:16:17.325Z,17.20
2019-03-24T15:18:47.461Z,17.20
2019-03-24T15:21:16.322Z,17.20
2019-03-24T15:23:45.096Z,17.20
2019-03-24T15:26:13.941Z,17.10
2019-03-24T15:28:42.749Z,17.30
2019-03-24T15:31:11.725Z,17.60
2019-03-24T15:33:40.971Z,17.60
2019-03-24T15:36:13.214Z,17.70
2019-03-24T15:38:42.760Z,17.70
2019-03-24T15:41:11.820Z,17.80
2019-03-24T15:43:41.207Z,18.20
2019-03-24T15:46:10.285Z,17.50
2019-03-24T15:48:39.131Z,17.30
2019-03-24T15:51:16.325Z,16.10
2019-03-24T15:53:38.793Z,16.00
2019-03-24T15:56:07.661Z,16.00
2019-03-24T15:58:36.492Z,16.30
2019-03-24T16:01:05.484Z,16.90
2019-03-24T16:03:34.507Z,17.30
2019-03-24T16:06:03.639Z,17.40
2019-03-24T16:08:32.966Z,17.50
2019-03-24T16:11:02.371Z,17.50
2019-03-24T16:13:31.390Z,17.20
2019-03-24T16:16:00.504Z,17.30
2019-03-24T16:18:30.928Z,17.70
2019-03-24T16:20:59.919Z,17.20
2019-03-24T16:23:28.758Z,17.20
2019-03-24T16:25:57.656Z,16.60
2019-03-24T16:28:26.597Z,16.20
2019-03-24T16:30:56.013Z,16.00
2019-03-24T16:33:25.916Z,15.90
2019-03-24T16:35:54.859Z,15.90
2019-03-24T16:38:23.750Z,16.00
2019-03-24T16:40:53.119Z,16.00
2019-03-24T16:43:22.321Z,15.30
2019-03-24T16:45:51.519Z,15.30
2019-03-24T16:48:20.273Z,15.20
2019-03-24T16:50:49.085Z,15.30
2019-03-24T16:53:17.998Z,15.20
2019-03-24T16:55:46.797Z,15.00
2019-03-24T16:58:15.976Z,14.60
2019-03-24T17:00:44.787Z,14.70
2019-03-24T17:03:15.499Z,14.70
2019-03-24T17:05:44.339Z,14.30
2019-03-24T17:08:13.141Z,14.20
2019-03-24T17:10:44.857Z,14.10
2019-03-24T17:13:13.949Z,13.80
2019-03-24T17:15:44.068Z,13.70
2019-03-24T17:18:13.211Z,13.50
2019-03-24T17:20:42.237Z,13.50
2019-03-24T17:23:12.332Z,13.30
2019-03-24T17:25:41.264Z,13.20
2019-03-24T17:28:10.130Z,13.00
2019-03-24T17:30:39.939Z,12.90
2019-03-24T17:33:08.789Z,12.80
2019-03-24T17:35:41.739Z,12.80
2019-03-24T17:38:13.642Z,12.70
2019-03-24T17:40:44.543Z,12.50
2019-03-24T17:43:13.514Z,12.60
2019-03-24T17:45:42.589Z,12.50
2019-03-24T17:48:11.982Z,12.40
2019-03-24T17:50:40.811Z,12.40
2019-03-24T17:53:10.204Z,12.30
2019-03-24T17:55:39.210Z,12.30
2019-03-24T17:58:07.999Z,12.20
2019-03-24T18:00:43.222Z,12.10
2019-03-24T18:03:12.524Z,12.10
2019-03-24T18:05:41.779Z,12.00
2019-03-24T18:08:10.592Z,12.00
2019-03-24T18:10:39.739Z,12.10
2019-03-24T18:13:08.684Z,11.90
2019-03-24T18:15:37.652Z,11.90
2019-03-24T18:18:06.873Z,12.00
2019-03-24T18:20:36.441Z,12.00
2019-03-24T18:23:05.681Z,11.90
2019-03-24T18:25:39.185Z,11.90
2019-03-24T18:28:08.465Z,11.90
2019-03-24T18:30:37.766Z,11.90
2019-03-24T18:33:07.058Z,11.90
2019-03-24T18:35:36.266Z,11.90
2019-03-24T18:38:05.096Z,11.90
2019-03-24T18:40:33.981Z,11.90
2019-03-24T18:43:02.768Z,11.80
2019-03-24T18:45:33.061Z,11.80
2019-03-24T18:48:01.879Z,11.80
2019-03-24T18:50:31.222Z,11.90
2019-03-24T18:53:00.512Z,11.80
2019-03-24T18:55:29.658Z,11.80
2019-03-24T18:57:58.541Z,11.70
2019-03-24T19:00:27.982Z,11.70
2019-03-24T19:02:56.787Z,11.60
2019-03-24T19:05:26.045Z,11.70
2019-03-24T19:07:54.866Z,11.70
2019-03-24T19:10:24.157Z,11.70
2019-03-24T19:12:53.410Z,11.70
2019-03-24T19:15:22.584Z,11.70
2019-03-24T19:17:51.594Z,11.60
2019-03-24T19:20:20.474Z,11.60
2019-03-24T19:22:49.287Z,11.60
2019-03-24T19:25:18.341Z,11.60
2019-03-24T19:27:47.210Z,11.50
2019-03-24T19:30:16.341Z,11.40
2019-03-24T19:32:45.574Z,11.40
2019-03-24T19:35:14.490Z,11.40
2019-03-24T19:37:44.892Z,11.40
2019-03-24T19:40:26.095Z,11.40
2019-03-24T19:42:55.215Z,11.30
2019-03-24T19:45:24.239Z,11.30
2019-03-24T19:47:53.203Z,11.20
2019-03-24T19:50:22.142Z,11.20
2019-03-24T19:52:51.140Z,11.10
2019-03-24T19:55:20.172Z,11.10
2019-03-24T19:57:49.135Z,11.10
2019-03-24T20:00:18.024Z,11.10
2019-03-24T20:02:47.047Z,11.10
2019-03-24T20:05:15.971Z,11.00
2019-03-24T20:07:48.254Z,11.00
2019-03-24T20:10:17.320Z,10.90
2019-03-24T20:12:46.950Z,10.90
2019-03-24T20:15:16.924Z,10.90
2019-03-24T20:17:45.683Z,11.00
2019-03-24T20:20:14.629Z,10.90
2019-03-24T20:22:43.456Z,10.60
2019-03-24T20:25:12.358Z,10.80
2019-03-24T20:27:41.839Z,10.70
2019-03-24T20:30:11.381Z,10.80
2019-03-24T20:32:40.450Z,10.70
2019-03-24T20:35:11.309Z,10.70
2019-03-24T20:37:40.472Z,10.70
2019-03-24T20:40:09.871Z,10.70
2019-03-24T20:42:38.771Z,10.80
2019-03-24T20:45:07.914Z,10.80
2019-03-24T20:47:36.883Z,10.80
2019-03-24T20:50:06.701Z,10.10
2019-03-24T20:52:35.698Z,10.70
2019-03-24T20:55:05.261Z,10.70
2019-03-24T20:57:34.374Z,10.80
2019-03-24T21:00:05.615Z,10.80
2019-03-24T21:02:36.317Z,10.60
2019-03-24T21:05:05.960Z,10.70
2019-03-24T21:07:35.736Z,10.70
2019-03-24T21:10:05.626Z,10.70
2019-03-24T21:12:34.546Z,10.70
2019-03-24T21:15:03.901Z,10.70
2019-03-24T21:17:34.106Z,10.60
2019-03-24T21:20:03.171Z,10.50
2019-03-24T21:22:31.992Z,10.50
2019-03-24T21:25:00.827Z,10.60
2019-03-24T21:27:30.201Z,10.60
2019-03-24T21:30:01.705Z,10.70
2019-03-24T21:32:31.935Z,10.70
2019-03-24T21:35:00.748Z,10.60
2019-03-24T21:37:29.680Z,10.60
2019-03-24T21:39:58.697Z,10.50
2019-03-24T21:42:27.463Z,10.50
2019-03-24T21:44:56.417Z,10.50
2019-03-24T21:49:53.786Z,10.50
2019-03-24T21:52:22.981Z,10.40
2019-03-24T21:54:51.880Z,10.50
2019-03-24T21:57:34.289Z,10.40
2019-03-24T22:00:07.571Z,10.40
2019-03-24T22:02:37.057Z,10.40
2019-03-24T22:05:06.004Z,10.40
2019-03-24T22:07:34.998Z,10.20
2019-03-24T22:10:04.723Z,10.20
2019-03-24T22:12:33.986Z,10.20
2019-03-24T22:15:07.024Z,10.10
2019-03-24T22:17:35.991Z,10.10
2019-03-24T22:20:05.258Z,10.00
2019-03-24T22:22:34.548Z,10.00
2019-03-24T22:25:03.549Z,10.00
2019-03-24T22:27:32.657Z,9.80
2019-03-24T22:30:01.602Z,9.80
2019-03-24T22:32:31.646Z,9.80
2019-03-24T22:35:00.450Z,9.80
2019-03-24T22:37:29.640Z,9.80
2019-03-24T22:39:58.450Z,9.80
2019-03-24T22:42:27.831Z,9.70
2019-03-24T22:44:56.626Z,9.70
2019-03-24T22:47:25.436Z,9.60
2019-03-24T22:49:55.347Z,9.50
2019-03-24T22:52:24.326Z,9.50
2019-03-24T22:54:53.508Z,9.40
2019-03-24T22:57:22.415Z,9.40
2019-03-24T22:59:51.363Z,9.50
2019-03-24T23:02:20.185Z,9.40
2019-03-24T23:04:48.985Z,9.40
2019-03-24T23:07:17.847Z,9.30
2019-03-24T23:09:47.450Z,9.20
2019-03-24T23:12:16.274Z,9.20
2019-03-24T23:14:45.877Z,9.30
2019-03-24T23:17:14.958Z,9.20
2019-03-24T23:19:43.763Z,9.20
2019-03-24T23:22:12.636Z,9.20
2019-03-24T23:24:43.482Z,9.20
2019-03-24T23:27:12.314Z,9.20
2019-03-24T23:29:41.112Z,9.10
2019-03-24T23:32:10.280Z,9.10
2019-03-24T23:34:39.603Z,9.10
2019-03-24T23:37:08.857Z,9.10
2019-03-24T23:39:37.975Z,9.10
2019-03-24T23:42:06.940Z,9.10
2019-03-24T23:44:36.876Z,9.10
2019-03-24T23:47:05.801Z,9.00
2019-03-24T23:49:34.722Z,9.10
2019-03-24T23:52:03.900Z,9.10
2019-03-24T23:54:32.781Z,9.10
2019-03-24T23:57:01.691Z,9.00
2019-03-24T23:59:30.541Z,9.00
